Time;durP1;ratioP1;P1;durP2;ratioP2;P2;SDS_P1;SDS_P2;PMS_P1;PMS_P2;Temp;Humidity;BMP_temperature;BMP_pressure;BME280_temperature;BME280_humidity;BME280_pressure;Samples;Min_cycle;Max_cycle;Signal;HPM_P1;HPM_P2
2023/08/27 00:01:28;547247.00;1.82;943.21;43320.00;0.14;75.63;;;;;21.20;11.40;;;;;;2313498;40;1785;-89
2023/08/27 00:03:57;414501.00;1.38;714.74;84652.00;0.28;147.07;;;;;20.90;12.20;;;;;;2272387;61;1569;-87
2023/08/27 00:06:24;160614.00;0.54;278.10;0.00;0.00;0.62;;;;;20.80;12.70;;;;;;2272114;61;2188;-89
2023/08/27 00:11:27;482603.00;1.61;831.88;0.00;0.00;0.62;;;;;20.50;14.70;;;;;;2359814;40;2189;-87
2023/08/27 00:32:02;390781.00;1.30;673.96;39175.00;0.13;68.46;;;;;20.60;15.30;;;;;;2403798;40;2087;-90
2023/08/27 00:37:22;1354089.00;4.51;2371.44;0.00;0.00;0.62;;;;;20.70;13.80;;;;;;2285747;60;1429;-87
2023/08/27 00:50:01;24140.00;0.08;42.44;0.00;0.00;0.62;;;;;20.70;13.40;;;;;;2411316;39;2160;-88
2023/08/27 00:52:33;272475.00;0.91;470.60;0.00;0.00;0.62;;;;;20.80;13.60;;;;;;2330680;39;3816;-87
2023/08/27 00:55:01;230999.00;0.77;399.27;40360.00;0.13;70.51;;;;;21.00;12.60;;;;;;1580365;39;3803;-87
2023/08/27 00:57:29;736707.00;2.46;1270.95;43891.00;0.15;76.62;;;;;21.10;12.60;;;;;;2358275;39;3767;-87
2023/08/27 01:05:08;208874.00;0.70;361.20;0.00;0.00;0.62;;;;;21.00;11.90;;;;;;2407480;40;2165;-89
2023/08/27 01:07:56;291083.00;0.97;502.59;14072.00;0.05;25.00;;;;;20.90;12.70;;;;;;2331051;39;3736;-87
2023/08/27 01:13:02;1300888.00;4.34;2273.73;0.00;0.00;0.62;;;;;21.10;12.60;;;;;;2277150;61;1415;-90
2023/08/27 01:30:57;470754.00;1.57;811.49;0.00;0.00;0.62;;;;;21.00;13.20;;;;;;2443307;39;2954;-88
2023/08/27 01:33:28;463777.00;1.55;799.48;0.00;0.00;0.62;;;;;21.10;13.80;;;;;;2294997;56;3740;-89
2023/08/27 01:41:02;1303332.00;4.34;2278.20;78968.00;0.26;137.25;;;;;21.20;13.20;;;;;;2310630;39;3662;-90
2023/08/27 01:46:03;1547591.00;5.16;2732.99;171721.00;0.57;297.23;;;;;21.20;14.00;;;;;;2313760;39;3620;-89
2023/08/27 01:51:06;669118.00;2.23;1153.73;61312.00;0.20;106.74;;;;;21.10;14.20;;;;;;2335942;40;1981;-91
2023/08/27 01:53:34;425733.00;1.42;734.05;67650.00;0.23;117.70;;;;;21.10;14.00;;;;;;2351972;39;3601;-90
2023/08/27 01:58:36;2184493.00;7.28;4010.29;66406.00;0.22;115.55;;;;;21.20;14.00;;;;;;2274074;61;1321;-87
2023/08/27 02:11:09;1748033.00;5.83;3119.14;51158.00;0.17;89.19;;;;;21.10;14.20;;;;;;2293929;40;3439;-89
2023/08/27 02:16:08;1938028.00;6.46;3497.84;60799.00;0.20;105.86;;;;;20.90;15.10;;;;;;2286088;40;3479;-91
2023/08/27 02:18:36;519183.00;1.73;894.86;55045.00;0.18;95.91;;;;;21.00;15.40;;;;;;2303597;39;3571;-88
2023/08/27 02:23:41;592402.00;1.97;1021.10;0.00;0.00;0.62;;;;;21.40;13.80;;;;;;2356270;40;1791;-88
2023/08/27 02:28:42;1177201.00;3.92;2049.05;0.00;0.00;0.62;;;;;21.30;14.40;;;;;;2299746;39;3625;-89
2023/08/27 02:31:09;185878.00;0.62;321.61;48682.00;0.16;84.91;;;;;21.30;14.30;;;;;;2301984;39;3615;-88
2023/08/27 02:33:37;340823.00;1.14;588.09;73031.00;0.24;127.00;;;;;21.40;14.20;;;;;;2314871;40;3796;-89
2023/08/27 02:38:39;422098.00;1.41;727.80;0.00;0.00;0.62;;;;;21.20;14.90;;;;;;2331771;40;2488;-89
2023/08/27 02:43:41;1404912.00;4.68;2465.44;78289.00;0.26;136.08;;;;;21.10;15.60;;;;;;2278031;55;3635;-90
2023/08/27 02:46:12;255252.00;0.85;440.98;41479.00;0.14;72.45;;;;;21.10;14.90;;;;;;2304211;55;3760;-88
2023/08/27 02:48:39;242173.00;0.81;418.49;0.00;0.00;0.62;;;;;21.10;14.30;;;;;;2299748;39;3587;-89
2023/08/27 02:51:06;27214.00;0.09;47.76;0.00;0.00;0.62;;;;;21.20;15.50;;;;;;2278381;55;3852;-91
2023/08/27 02:53:33;780990.00;2.60;1347.99;202558.00;0.68;350.33;;;;;21.30;14.30;;;;;;2312769;56;3713;-89
2023/08/27 02:58:30;1597593.00;5.33;2828.14;31535.00;0.11;55.24;;;;;20.70;16.20;;;;;;2293128;39;3628;-87
2023/08/27 03:23:47;376428.00;1.25;649.29;0.00;0.00;0.62;;;;;20.50;17.70;;;;;;1980406;56;2400;-87
2023/08/27 03:28:47;1424178.00;4.75;2501.24;0.00;0.00;0.62;;;;;20.70;17.80;;;;;;2306851;40;3550;-87
2023/08/27 03:31:14;113424.00;0.38;196.74;0.00;0.00;0.62;;;;;20.80;17.30;;;;;;2276853;61;1371;-88
2023/08/27 03:33:41;387131.00;1.29;667.68;0.00;0.00;0.62;;;;;20.90;16.10;;;;;;2276805;61;2074;-88
2023/08/27 03:36:08;143302.00;0.48;248.26;0.00;0.00;0.62;;;;;21.00;16.50;;;;;;2276961;61;1922;-87
2023/08/27 03:38:35;196394.00;0.65;339.72;0.00;0.00;0.62;;;;;21.10;14.80;;;;;;2276943;61;1619;-87
2023/08/27 03:41:03;207156.00;0.69;358.24;0.00;0.00;0.62;;;;;21.20;15.70;;;;;;2276801;61;1690;-86
2023/08/27 03:46:04;1343891.00;4.48;2352.66;0.00;0.00;0.62;;;;;21.10;15.80;;;;;;2274727;61;1301;-87
2023/08/27 03:48:31;169915.00;0.57;294.12;0.00;0.00;0.62;;;;;20.80;15.70;;;;;;2272728;61;962;-87
2023/08/27 03:50:58;189295.00;0.63;327.49;0.00;0.00;0.62;;;;;20.80;16.70;;;;;;2272759;61;1707;-86
2023/08/27 03:53:25;66158.00;0.22;115.12;0.00;0.00;0.62;;;;;20.90;15.80;;;;;;2272850;61;1056;-86
2023/08/27 03:55:53;217797.00;0.73;376.55;0.00;0.00;0.62;;;;;21.00;15.80;;;;;;2272772;61;1928;-85
2023/08/27 03:58:21;408750.00;1.36;704.85;37354.00;0.12;65.31;;;;;21.00;15.40;;;;;;2272855;61;1675;-86
2023/08/27 04:00:48;219078.00;0.73;378.76;0.00;0.00;0.62;;;;;21.00;16.10;;;;;;2272782;61;1412;-86
2023/08/27 04:03:15;164826.00;0.55;285.35;0.00;0.00;0.62;;;;;20.80;17.40;;;;;;2272883;61;1035;-86
2023/08/27 04:05:42;244037.00;0.81;421.70;0.00;0.00;0.62;;;;;20.90;16.80;;;;;;2272741;61;1716;-85
2023/08/27 04:08:09;212115.00;0.71;366.78;0.00;0.00;0.62;;;;;20.90;15.10;;;;;;2272880;61;1052;-86
2023/08/27 04:10:36;276910.00;0.92;478.22;31262.00;0.10;54.77;;;;;20.80;16.90;;;;;;2272764;61;2122;-86
2023/08/27 04:13:03;136006.00;0.45;235.69;0.00;0.00;0.62;;;;;21.10;16.80;;;;;;2272910;61;1037;-86
2023/08/27 04:15:33;165607.00;0.55;286.70;0.00;0.00;0.62;;;;;21.10;15.70;;;;;;2272791;61;1607;-86
2023/08/27 04:18:00;47318.00;0.16;82.55;0.00;0.00;0.62;;;;;21.20;15.40;;;;;;2272816;61;1724;-87
2023/08/27 04:20:30;201587.00;0.67;348.66;0.00;0.00;0.62;;;;;21.10;15.80;;;;;;2272822;61;1396;-87
2023/08/27 04:22:57;124476.00;0.41;215.80;0.00;0.00;0.62;;;;;21.10;15.90;;;;;;2272770;61;1006;-86
2023/08/27 04:25:23;143246.00;0.48;248.17;0.00;0.00;0.62;;;;;21.00;17.20;;;;;;2272811;61;2316;-85
2023/08/27 04:27:50;106809.00;0.36;185.32;0.00;0.00;0.62;;;;;21.10;16.30;;;;;;2272889;61;933;-87
2023/08/27 04:30:17;196019.00;0.65;339.07;0.00;0.00;0.62;;;;;21.20;15.00;;;;;;2272795;61;1319;-86
2023/08/27 04:32:46;104121.00;0.35;180.68;0.00;0.00;0.62;;;;;21.20;15.30;;;;;;2272873;61;1019;-87
2023/08/27 04:35:12;191723.00;0.64;331.67;0.00;0.00;0.62;;;;;21.30;15.50;;;;;;2272795;61;1543;-85
2023/08/27 04:37:39;165670.00;0.55;286.81;0.00;0.00;0.62;;;;;21.20;14.70;;;;;;2272779;61;1930;-87
2023/08/27 04:40:08;106012.00;0.35;183.95;0.00;0.00;0.62;;;;;21.20;15.00;;;;;;2272779;61;1142;-86
2023/08/27 04:42:36;251771.00;0.84;435.00;60213.00;0.20;104.85;;;;;21.10;14.50;;;;;;2272759;61;2196;-87
2023/08/27 04:45:04;33039.00;0.11;57.84;0.00;0.00;0.62;;;;;21.00;15.20;;;;;;2272652;61;1710;-86
2023/08/27 04:47:31;214469.00;0.71;370.83;0.00;0.00;0.62;;;;;20.80;16.90;;;;;;2272782;61;1110;-85
2023/08/27 04:49:59;125109.00;0.42;216.89;0.00;0.00;0.62;;;;;20.80;16.80;;;;;;2272801;61;1038;-88
2023/08/27 04:52:26;92348.00;0.31;160.36;0.00;0.00;0.62;;;;;20.50;17.70;;;;;;2272801;61;1305;-86
2023/08/27 04:54:53;206339.00;0.69;356.83;0.00;0.00;0.62;;;;;20.60;17.80;;;;;;2272789;61;1028;-88
2023/08/27 04:57:20;146887.00;0.49;254.44;0.00;0.00;0.62;;;;;20.60;18.10;;;;;;2272758;61;2004;-86
2023/08/27 04:59:47;245039.00;0.82;423.42;88414.00;0.29;153.57;;;;;20.50;18.80;;;;;;2272732;61;1062;-87
2023/08/27 05:02:14;416852.00;1.39;718.78;19293.00;0.06;34.05;;;;;20.40;18.70;;;;;;2272740;61;1293;-86
2023/08/27 05:04:41;0.00;0.00;0.62;0.00;0.00;0.62;;;;;20.10;21.00;;;;;;2272669;61;1095;-88
2023/08/27 05:07:09;139236.00;0.46;241.25;8559.00;0.03;15.45;;;;;20.20;21.10;;;;;;2272719;61;1153;-86
2023/08/27 05:09:36;154556.00;0.52;267.66;0.00;0.00;0.62;;;;;20.50;20.60;;;;;;2272660;61;1660;-86
2023/08/27 05:12:03;179668.00;0.60;310.92;0.00;0.00;0.62;;;;;20.70;19.00;;;;;;2272645;61;1291;-88
2023/08/27 05:14:30;229622.00;0.77;396.90;0.00;0.00;0.62;;;;;20.90;18.00;;;;;;2272658;61;1537;-87
2023/08/27 05:16:57;125431.00;0.42;217.45;0.00;0.00;0.62;;;;;21.00;17.90;;;;;;2272714;61;2008;-86
2023/08/27 05:19:24;223884.00;0.75;387.03;0.00;0.00;0.62;;;;;21.10;16.80;;;;;;2272729;61;1104;-87
2023/08/27 05:21:51;215352.00;0.72;372.35;0.00;0.00;0.62;;;;;21.30;16.10;;;;;;2272679;61;1396;-87
2023/08/27 05:24:19;91778.00;0.31;159.38;0.00;0.00;0.62;;;;;21.30;16.20;;;;;;2273408;61;1047;-87
2023/08/27 05:26:46;186391.00;0.62;322.49;0.00;0.00;0.62;;;;;21.40;15.20;;;;;;2273399;61;1049;-86
2023/08/27 05:29:13;140954.00;0.47;244.22;0.00;0.00;0.62;;;;;21.40;15.10;;;;;;2273358;61;1085;-86
2023/08/27 05:31:40;152816.00;0.51;264.66;0.00;0.00;0.62;;;;;21.40;15.70;;;;;;2273343;61;1406;-88
2023/08/27 05:34:07;231699.00;0.77;400.47;0.00;0.00;0.62;;;;;21.30;14.80;;;;;;2273307;61;922;-87
2023/08/27 05:36:34;226671.00;0.76;391.82;0.00;0.00;0.62;;;;;21.20;14.70;;;;;;2273341;61;1997;-85
2023/08/27 05:39:01;346366.00;1.15;597.62;18863.00;0.06;33.30;;;;;21.20;15.30;;;;;;2273154;61;921;-86
2023/08/27 05:41:29;185859.00;0.62;321.58;0.00;0.00;0.62;;;;;21.30;13.70;;;;;;2273185;61;1287;-88
2023/08/27 05:43:57;245874.00;0.82;424.85;0.00;0.00;0.62;;;;;21.20;14.90;;;;;;2273115;61;1573;-86
2023/08/27 05:46:24;213543.00;0.71;369.23;0.00;0.00;0.62;;;;;21.10;15.40;;;;;;2273187;61;1563;-86
2023/08/27 05:48:51;204488.00;0.68;353.65;0.00;0.00;0.62;;;;;21.10;15.60;;;;;;2273250;61;1154;-85
2023/08/27 05:51:18;159605.00;0.53;276.36;0.00;0.00;0.62;;;;;21.30;15.70;;;;;;2273260;61;1377;-88
2023/08/27 05:53:45;145595.00;0.49;252.22;0.00;0.00;0.62;;;;;21.40;14.90;;;;;;2273297;61;1113;-86
2023/08/27 05:56:12;137462.00;0.46;238.20;0.00;0.00;0.62;;;;;21.40;14.00;;;;;;2273252;61;2000;-86
2023/08/27 05:58:40;237246.00;0.79;410.01;0.00;0.00;0.62;;;;;21.10;15.00;;;;;;2273199;61;1764;-86
2023/08/27 06:01:07;293480.00;0.98;506.71;13600.00;0.05;24.19;;;;;21.00;16.00;;;;;;2273158;61;1745;-87
2023/08/27 06:03:34;294377.00;0.98;508.25;0.00;0.00;0.62;;;;;21.20;16.00;;;;;;2273180;61;1602;-86
2023/08/27 06:06:02;145528.00;0.49;252.10;815.00;0.00;2.03;;;;;21.40;14.80;;;;;;2273139;61;1701;-86
2023/08/27 06:08:29;193664.00;0.65;335.02;0.00;0.00;0.62;;;;;21.40;14.80;;;;;;2273203;61;1722;-86
2023/08/27 06:10:56;291897.00;0.97;503.99;65026.00;0.22;113.16;;;;;21.50;15.00;;;;;;2273133;61;1272;-86
2023/08/27 06:13:23;527292.00;1.76;908.83;51630.00;0.17;90.01;;;;;21.50;14.70;;;;;;2273204;61;1650;-87
2023/08/27 06:15:52;212078.00;0.71;366.71;15145.00;0.05;26.86;;;;;21.70;14.80;;;;;;2273065;61;1072;-86
2023/08/27 06:18:19;266845.00;0.89;460.92;2442.00;0.01;4.85;;;;;21.70;14.80;;;;;;2273052;61;1928;-89
2023/08/27 06:20:50;93821.00;0.31;162.91;0.00;0.00;0.62;;;;;21.70;15.40;;;;;;2272915;61;1572;-87
2023/08/27 06:23:18;302537.00;1.01;522.28;0.00;0.00;0.62;;;;;21.70;15.30;;;;;;2273048;61;1605;-88
2023/08/27 06:25:45;89930.00;0.30;156.19;0.00;0.00;0.62;;;;;21.80;14.40;;;;;;2272986;61;1806;-88
2023/08/27 06:30:45;1192349.00;3.97;2076.39;0.00;0.00;0.62;;;;;21.60;15.00;;;;;;2274328;61;1311;-87
2023/08/27 06:33:15;191995.00;0.64;332.14;0.00;0.00;0.62;;;;;21.50;14.00;;;;;;2304611;55;3773;-88
2023/08/27 06:38:14;1189219.00;3.96;2070.74;0.00;0.00;0.62;;;;;21.80;14.50;;;;;;2318719;39;3413;-88
2023/08/27 06:43:16;464880.00;1.55;801.38;0.00;0.00;0.62;;;;;22.20;13.40;;;;;;2319997;40;2134;-88
2023/08/27 06:45:44;297922.00;0.99;514.35;0.00;0.00;0.62;;;;;22.30;13.50;;;;;;2361985;39;3775;-88
2023/08/27 06:50:43;1290033.00;4.30;2253.88;0.00;0.00;0.62;;;;;22.40;11.70;;;;;;2328357;55;3622;-87
2023/08/27 06:55:43;967861.00;3.23;1675.63;0.00;0.00;0.62;;;;;22.70;11.20;;;;;;2274355;61;1394;-86
2023/08/27 07:05:50;1350534.00;4.50;2364.89;0.00;0.00;0.62;;;;;22.60;11.30;;;;;;2313650;39;3529;-88
2023/08/27 07:08:19;266233.00;0.89;459.87;0.00;0.00;0.62;;;;;22.70;10.00;;;;;;2268614;61;1663;-87
2023/08/27 07:13:19;1021665.00;3.41;1770.88;9763.00;0.03;17.54;;;;;22.30;9.80;;;;;;2321661;55;3643;-88
2023/08/27 07:15:46;160708.00;0.54;278.26;0.00;0.00;0.62;;;;;22.50;10.80;;;;;;2276745;61;1739;-89
2023/08/27 07:33:38;1729841.00;5.77;3083.55;109417.00;0.36;189.82;;;;;22.60;9.90;;;;;;2265722;61;1273;-89
2023/08/27 08:00:08;1066208.00;3.55;1850.10;0.00;0.00;0.62;;;;;23.10;8.00;;;;;;2275893;40;3555;-85
2023/08/27 08:02:40;2014851.00;6.72;3654.86;0.00;0.00;0.62;;;;;23.20;7.70;;;;;;2269751;61;1613;-89
2023/08/27 08:07:40;1344977.00;4.48;2354.66;71367.00;0.24;124.12;;;;;23.40;6.50;;;;;;2293718;40;3665;-87
2023/08/27 08:10:08;364109.00;1.21;628.11;66830.00;0.22;116.28;;;;;23.50;5.90;;;;;;2268434;61;1192;-88
2023/08/27 08:12:36;618870.00;2.06;1066.81;195002.00;0.65;337.32;;;;;23.40;5.60;;;;;;2268437;61;1875;-87
2023/08/27 08:15:03;471191.00;1.57;812.24;123079.00;0.41;213.39;;;;;23.40;5.80;;;;;;2268338;61;1727;-89
2023/08/27 08:17:34;489277.00;1.63;843.36;65438.00;0.22;113.88;;;;;23.30;6.20;;;;;;2268444;61;1922;-88
2023/08/27 08:30:18;725726.00;2.42;1251.88;0.00;0.00;0.62;;;;;22.70;7.10;;;;;;2114846;40;2143;-88
2023/08/27 08:32:46;629227.00;2.10;1084.71;69584.00;0.23;121.04;;;;;22.30;8.10;;;;;;2268362;61;1693;-87
2023/08/27 08:35:13;678447.00;2.26;1169.88;13369.00;0.04;23.79;;;;;22.20;7.80;;;;;;2305515;40;3895;-87
2023/08/27 08:37:41;822941.00;2.74;1421.16;90196.00;0.30;156.65;;;;;22.10;7.80;;;;;;2348888;40;3743;-87
2023/08/27 08:45:28;334133.00;1.11;576.59;0.00;0.00;0.62;;;;;22.30;9.60;;;;;;2408499;40;2043;-91
2023/08/27 08:48:00;549088.00;1.83;946.39;69700.00;0.23;121.24;;;;;22.40;9.00;;;;;;2379041;40;3741;-88
2023/08/27 09:10:58;1480741.00;4.94;2606.93;0.00;0.00;0.62;;;;;24.00;4.90;;;;;;2044953;40;3642;-91
2023/08/27 09:13:27;236257.00;0.79;408.31;0.00;0.00;0.62;;;;;24.20;4.20;;;;;;2351422;40;3641;-89
2023/08/27 09:15:55;293395.00;0.98;506.57;5932.00;0.02;10.90;;;;;24.10;3.40;;;;;;2313327;55;3856;-88
2023/08/27 09:20:53;1353533.00;4.51;2370.42;0.00;0.00;0.62;;;;;24.00;3.50;;;;;;2267225;61;1359;-88
2023/08/27 09:23:22;232963.00;0.78;402.65;47294.00;0.16;82.51;;;;;23.60;3.60;;;;;;2265635;61;1739;-90
2023/08/27 09:25:50;132259.00;0.44;229.22;0.00;0.00;0.62;;;;;24.00;3.70;;;;;;2264921;61;1730;-87
2023/08/27 09:28:22;151757.00;0.51;262.84;0.00;0.00;0.62;;;;;24.00;3.30;;;;;;2380135;55;3722;-88
2023/08/27 09:30:50;416850.00;1.39;718.77;0.00;0.00;0.62;;;;;24.30;3.50;;;;;;2304798;41;3654;-87
2023/08/27 09:33:18;151298.00;0.50;262.04;0.00;0.00;0.62;;;;;24.00;2.90;;;;;;2292379;40;3631;-88
2023/08/27 09:35:45;282819.00;0.94;488.38;85986.00;0.29;149.38;;;;;24.10;2.60;;;;;;2273729;55;3757;-88
2023/08/27 09:38:14;235193.00;0.78;406.48;0.00;0.00;0.62;;;;;24.20;2.60;;;;;;2272101;55;3665;-88
2023/08/27 09:40:42;216625.00;0.72;374.54;67752.00;0.23;117.88;;;;;24.40;1.00;;;;;;2283176;40;3858;-88
2023/08/27 09:45:46;1154708.00;3.85;2008.54;0.00;0.00;0.62;;;;;24.60;1.90;;;;;;2343308;40;3639;-87
2023/08/27 09:48:25;192727.00;0.64;333.40;0.00;0.00;0.62;;;;;25.10;1.00;;;;;;2268978;61;1072;-87
2023/08/27 09:51:04;159439.00;0.53;276.07;0.00;0.00;0.62;;;;;25.10;1.00;;;;;;2274562;40;3600;-87
2023/08/27 09:53:31;583548.00;1.95;1005.82;0.00;0.00;0.62;;;;;25.30;1.00;;;;;;2268724;61;1628;-88
2023/08/27 09:55:58;154694.00;0.52;267.90;0.00;0.00;0.62;;;;;25.20;1.00;;;;;;2274034;40;3622;-88
2023/08/27 09:58:27;1258.00;0.00;2.80;0.00;0.00;0.62;;;;;25.00;1.00;;;;;;2268939;61;1923;-86
2023/08/27 10:03:25;329991.00;1.10;569.47;59191.00;0.20;103.08;;;;;24.80;1.00;;;;;;2275834;55;3725;-89
2023/08/27 10:05:52;386183.00;1.29;666.05;55838.00;0.19;97.28;;;;;24.60;1.00;;;;;;2271535;40;3626;-87
2023/08/27 10:08:19;53907.00;0.18;93.94;0.00;0.00;0.62;;;;;24.70;1.00;;;;;;2268822;61;1019;-86
2023/08/27 10:10:46;163970.00;0.55;283.88;0.00;0.00;0.62;;;;;24.70;1.00;;;;;;2277139;40;3641;-87
2023/08/27 10:13:16;716289.00;2.39;1235.50;38070.00;0.13;66.55;;;;;24.10;1.00;;;;;;2275288;56;3752;-87
2023/08/27 10:15:43;257060.00;0.86;444.09;0.00;0.00;0.62;;;;;24.20;1.40;;;;;;2311784;41;3780;-87
2023/08/27 10:18:14;230697.00;0.77;398.75;37725.00;0.13;65.95;;;;;24.30;1.00;;;;;;2268644;61;1992;-87
2023/08/27 10:20:43;219854.00;0.73;380.09;64966.00;0.22;113.06;;;;;24.30;1.30;;;;;;2268873;61;1391;-87
2023/08/27 10:23:12;278171.00;0.93;480.39;0.00;0.00;0.62;;;;;24.40;1.00;;;;;;2268841;61;1771;-87
2023/08/27 10:25:39;153843.00;0.51;266.43;0.00;0.00;0.62;;;;;24.50;1.00;;;;;;2268843;61;1734;-88
2023/08/27 10:28:08;306088.00;1.02;528.39;0.00;0.00;0.62;;;;;23.80;1.00;;;;;;2289736;41;3649;-87
2023/08/27 10:33:05;742139.00;2.47;1280.39;0.00;0.00;0.62;;;;;24.00;1.00;;;;;;2266129;61;1295;-87
2023/08/27 10:35:38;188065.00;0.63;325.38;0.00;0.00;0.62;;;;;24.50;1.00;;;;;;2280255;55;3746;-87
2023/08/27 10:38:10;192871.00;0.64;333.65;0.00;0.00;0.62;;;;;24.40;1.00;;;;;;2285790;55;3620;-87
2023/08/27 10:40:37;147996.00;0.49;256.35;0.00;0.00;0.62;;;;;23.80;1.00;;;;;;2300045;55;3779;-89
2023/08/27 10:43:18;204521.00;0.68;353.71;0.00;0.00;0.62;;;;;23.80;1.00;;;;;;2270494;55;3757;-89
2023/08/27 10:45:46;188918.00;0.63;326.85;647.00;0.00;1.74;;;;;24.10;1.00;;;;;;2268966;61;1288;-86
2023/08/27 10:48:25;31104.00;0.10;54.49;0.00;0.00;0.62;;;;;24.50;1.00;;;;;;2268939;61;1665;-88
2023/08/27 10:53:22;689497.00;2.30;1189.03;0.00;0.00;0.62;;;;;24.50;1.00;;;;;;2289926;40;3532;-88
2023/08/27 10:55:52;169400.00;0.56;293.23;36048.00;0.12;63.05;;;;;24.40;1.00;;;;;;2268824;61;1545;-88
2023/08/27 10:58:21;252119.00;0.84;435.60;56986.00;0.19;99.27;;;;;24.10;1.00;;;;;;2268745;61;1914;-87
2023/08/27 11:01:07;311244.00;1.04;537.25;0.00;0.00;0.62;;;;;24.00;1.00;;;;;;2268775;61;1664;-88
2023/08/27 11:06:21;587176.00;1.96;1012.08;0.00;0.00;0.62;;;;;24.50;1.00;;;;;;2266598;61;1290;-86
2023/08/27 11:08:53;360209.00;1.20;621.41;0.00;0.00;0.62;;;;;24.70;1.00;;;;;;2264760;61;997;-88
2023/08/27 11:11:25;702153.00;2.34;1210.97;59225.00;0.20;103.14;;;;;24.60;1.00;;;;;;2264609;61;1720;-88
2023/08/27 11:16:24;2044851.00;6.82;3716.83;86550.00;0.29;150.35;;;;;24.00;1.00;;;;;;2266154;61;1409;-87
2023/08/27 11:18:52;609214.00;2.03;1050.13;98055.00;0.33;170.21;;;;;23.80;1.10;;;;;;2264588;61;2009;-88
2023/08/27 11:21:20;307714.00;1.03;531.18;136005.00;0.45;235.68;;;;;24.10;1.00;;;;;;2264513;61;1398;-87
2023/08/27 11:24:16;212153.00;0.71;366.84;68564.00;0.23;119.28;;;;;24.30;1.00;;;;;;2264774;61;1072;-85
2023/08/27 11:26:44;764744.00;2.55;1319.70;185231.00;0.62;320.50;;;;;24.60;1.00;;;;;;2264785;61;1074;-87
2023/08/27 11:29:12;689824.00;2.30;1189.60;74629.00;0.25;129.76;;;;;24.80;1.00;;;;;;2264582;61;1578;-89
2023/08/27 11:31:40;538582.00;1.80;928.28;68722.00;0.23;119.55;;;;;25.10;1.00;;;;;;2277279;40;3606;-86
2023/08/27 11:36:35;1226689.00;4.09;2138.55;67662.00;0.23;117.72;;;;;25.70;1.00;;;;;;2305638;56;3629;-87
2023/08/27 11:39:05;574752.00;1.92;990.64;67398.00;0.22;117.26;;;;;25.70;1.00;;;;;;2300522;40;3682;-86
2023/08/27 11:41:37;170973.00;0.57;295.94;66774.00;0.22;116.19;;;;;25.70;1.00;;;;;;2268658;61;1370;-88
2023/08/27 11:44:05;329191.00;1.10;568.10;67124.00;0.22;116.79;;;;;26.00;1.00;;;;;;2268637;61;1053;-86
2023/08/27 11:46:32;334586.00;1.12;577.37;64303.00;0.21;111.91;;;;;26.30;1.00;;;;;;2268756;61;1090;-87
2023/08/27 11:49:00;331223.00;1.10;571.59;68530.00;0.23;119.22;;;;;25.90;1.00;;;;;;2268614;61;1734;-87
2023/08/27 11:51:27;350718.00;1.17;605.10;70447.00;0.23;122.53;;;;;25.90;1.00;;;;;;2270655;55;3729;-86
2023/08/27 11:53:54;284271.00;0.95;490.88;66601.00;0.22;115.89;;;;;25.80;1.00;;;;;;2268556;61;1563;-86
2023/08/27 11:56:22;305852.00;1.02;527.98;67509.00;0.23;117.46;;;;;25.50;1.00;;;;;;2268661;61;1605;-88
2023/08/27 11:58:56;305454.00;1.02;527.30;64623.00;0.22;112.47;;;;;25.50;1.00;;;;;;2268600;61;1910;-88
2023/08/27 12:01:24;213110.00;0.71;368.49;67229.00;0.22;116.97;;;;;25.70;1.00;;;;;;2268749;61;1450;-88
2023/08/27 12:03:53;165605.00;0.55;286.70;67404.00;0.22;117.27;;;;;25.90;1.00;;;;;;2268725;61;1036;-88
2023/08/27 12:06:24;533414.00;1.78;919.37;115983.00;0.39;201.15;;;;;26.30;1.00;;;;;;2268599;61;1599;-89
2023/08/27 12:08:53;279256.00;0.93;482.26;64539.00;0.22;112.32;;;;;26.30;1.00;;;;;;2268610;61;1740;-89
2023/08/27 12:11:23;299985.00;1.00;517.89;57958.00;0.19;100.95;;;;;26.10;1.00;;;;;;2288756;40;3819;-87
2023/08/27 12:13:53;285039.00;0.95;492.20;66819.00;0.22;116.26;;;;;25.90;1.00;;;;;;2268642;61;1781;-87
2023/08/27 12:16:30;219819.00;0.73;380.03;71378.00;0.24;124.14;;;;;25.70;1.00;;;;;;2268544;61;1053;-86
2023/08/27 12:19:03;495910.00;1.65;854.78;69154.00;0.23;120.30;;;;;25.70;1.00;;;;;;2268529;61;2010;-87
2023/08/27 12:21:34;510493.00;1.70;879.89;94046.00;0.31;163.29;;;;;26.00;1.00;;;;;;2268247;61;1561;-89
2023/08/27 12:24:01;632792.00;2.11;1090.88;64840.00;0.22;112.84;;;;;26.00;1.00;;;;;;2268618;61;929;-87
2023/08/27 12:26:30;517291.00;1.72;891.60;67426.00;0.22;117.31;;;;;26.20;1.00;;;;;;2268667;61;1802;-88
2023/08/27 12:28:57;366579.00;1.22;632.36;98290.00;0.33;170.62;;;;;26.20;1.00;;;;;;2268564;61;983;-87
2023/08/27 12:31:25;411576.00;1.37;709.71;66762.00;0.22;116.16;;;;;25.80;1.00;;;;;;2268376;61;1396;-88
2023/08/27 12:33:59;464454.00;1.55;800.65;62472.00;0.21;108.75;;;;;25.30;1.00;;;;;;2268533;61;1711;-87
2023/08/27 12:36:26;230108.00;0.77;397.73;77307.00;0.26;134.39;;;;;24.80;1.00;;;;;;2268562;61;1045;-87
2023/08/27 12:41:24;303890.00;1.01;524.61;65612.00;0.22;114.18;;;;;25.10;1.00;;;;;;2266174;61;1403;-88
2023/08/27 12:43:54;349174.00;1.16;602.44;65287.00;0.22;113.62;;;;;25.10;1.00;;;;;;2264485;61;1601;-88
2023/08/27 12:46:21;286548.00;0.96;494.79;67986.00;0.23;118.28;;;;;25.10;1.00;;;;;;2264464;61;985;-87
2023/08/27 12:48:48;388138.00;1.29;669.41;69002.00;0.23;120.04;;;;;25.10;1.00;;;;;;2264622;61;1038;-88
2023/08/27 12:51:17;306598.00;1.02;529.26;68556.00;0.23;119.27;;;;;25.50;1.00;;;;;;2264422;61;1393;-87
2023/08/27 12:53:44;338298.00;1.13;583.75;68110.00;0.23;118.49;;;;;25.70;1.00;;;;;;2264452;61;1122;-88
2023/08/27 12:56:11;273183.00;0.91;471.82;70627.00;0.24;122.84;;;;;25.60;1.00;;;;;;2264529;61;918;-87
2023/08/27 13:01:07;894620.00;2.98;1546.67;63259.00;0.21;110.11;;;;;25.00;1.00;;;;;;2266993;61;1326;-89
2023/08/27 13:03:34;117563792.00;391.88;65818944.00;69076.00;0.23;120.16;;;;;25.00;1.00;;;;;;2265083;61;1079;-89
2023/08/27 13:06:01;300372.00;1.00;518.56;65688.00;0.22;114.31;;;;;24.90;1.00;;;;;;2265096;61;1109;-88
2023/08/27 13:08:29;417994.00;1.39;720.74;64104.00;0.21;111.57;;;;;25.00;1.00;;;;;;2264535;61;1091;-87
2023/08/27 13:10:56;194639.00;0.65;336.70;0.00;0.00;0.62;;;;;25.50;1.00;;;;;;2264287;61;1254;-87
2023/08/27 13:13:22;221523.00;0.74;382.96;0.00;0.00;0.62;;;;;25.80;1.00;;;;;;2264395;61;1560;-87
2023/08/27 13:15:49;161944.00;0.54;280.39;0.00;0.00;0.62;;;;;26.00;1.00;;;;;;2264516;61;899;-87
2023/08/27 13:18:19;91205.00;0.30;158.39;0.00;0.00;0.62;;;;;26.50;1.00;;;;;;2264268;61;1932;-89
2023/08/27 13:20:46;50544.00;0.17;88.13;0.00;0.00;0.62;;;;;26.30;1.00;;;;;;2264338;61;1277;-87
2023/08/27 13:23:13;198281.00;0.66;342.96;0.00;0.00;0.62;;;;;26.20;1.00;;;;;;2264333;61;2249;-87
2023/08/27 13:25:43;204077.00;0.68;352.94;0.00;0.00;0.62;;;;;25.90;1.00;;;;;;2264253;61;1059;-87
2023/08/27 13:28:10;177264.00;0.59;306.78;0.00;0.00;0.62;;;;;25.90;1.00;;;;;;2264410;61;1061;-88
2023/08/27 13:30:37;165378.00;0.55;286.30;0.00;0.00;0.62;;;;;26.00;1.00;;;;;;2264311;61;1578;-87
2023/08/27 13:33:04;271232.00;0.90;468.46;34102.00;0.11;59.68;;;;;26.10;1.00;;;;;;2264286;61;1426;-87
2023/08/27 13:38:01;886298.00;2.95;1532.07;34222.00;0.11;59.89;;;;;25.80;1.00;;;;;;2266156;61;1971;-87
2023/08/27 13:40:28;416181.00;1.39;717.62;0.00;0.00;0.62;;;;;26.00;1.00;;;;;;2283158;56;3801;-87
2023/08/27 13:42:57;178249.00;0.59;308.47;0.00;0.00;0.62;;;;;25.90;1.00;;;;;;2268410;61;1074;-87
2023/08/27 13:45:24;330792.00;1.10;570.85;0.00;0.00;0.62;;;;;25.80;1.00;;;;;;2269051;61;1066;-90
2023/08/27 13:47:51;312722.00;1.04;539.79;0.00;0.00;0.62;;;;;26.00;1.00;;;;;;2269134;61;1080;-89
2023/08/27 13:50:18;180707.00;0.60;312.71;0.00;0.00;0.62;;;;;26.20;1.00;;;;;;2268963;61;1278;-88
2023/08/27 13:52:46;172658.00;0.58;298.84;0.00;0.00;0.62;;;;;25.90;1.00;;;;;;2269063;61;938;-87
2023/08/27 13:55:13;90474.00;0.30;157.13;0.00;0.00;0.62;;;;;25.90;1.00;;;;;;2269045;61;1111;-87
2023/08/27 13:57:41;154637.00;0.52;267.80;0.00;0.00;0.62;;;;;25.90;1.00;;;;;;2269062;61;1017;-89